createdAt,value
2023-01-29T00:01:56.864Z,26.83
2023-01-29T00:04:24.403Z,22.00
2023-01-29T00:06:51.390Z,25.63
2023-01-29T00:09:18.466Z,21.77
2023-01-29T00:11:45.352Z,24.13
2023-01-29T00:14:12.157Z,23.02
2023-01-29T00:16:39.500Z,22.27
2023-01-29T00:19:06.588Z,22.38
2023-01-29T00:21:33.454Z,22.40
2023-01-29T00:24:00.761Z,23.85
2023-01-29T00:26:28.196Z,22.20
2023-01-29T00:28:57.209Z,22.42
2023-01-29T00:31:25.287Z,21.42
2023-01-29T00:33:53.036Z,24.37
2023-01-29T00:36:21.460Z,24.02
2023-01-29T00:38:54.788Z,23.10
2023-01-29T00:41:42.022Z,24.38
2023-01-29T00:44:27.615Z,23.65
2023-01-29T00:46:54.841Z,24.23
2023-01-29T00:49:22.024Z,22.63
2023-01-29T00:52:08.821Z,21.70
2023-01-29T00:54:36.316Z,22.30
2023-01-29T00:57:04.314Z,24.92
2023-01-29T00:59:32.037Z,18.57
2023-01-29T01:02:17.603Z,22.13
2023-01-29T01:04:44.676Z,23.25
2023-01-29T01:09:55.816Z,24.20
2023-01-29T01:12:22.949Z,23.60
2023-01-29T01:14:50.185Z,24.73
2023-01-29T01:17:17.410Z,21.45
2023-01-29T01:19:44.289Z,22.73
2023-01-29T01:22:11.606Z,21.63
2023-01-29T01:24:39.116Z,21.58
2023-01-29T01:27:06.685Z,20.55
2023-01-29T01:29:33.606Z,25.65
2023-01-29T01:32:00.496Z,22.87
2023-01-29T01:34:28.099Z,22.55
2023-01-29T01:36:56.406Z,22.23
2023-01-29T01:39:24.836Z,21.58
2023-01-29T01:41:56.100Z,22.05
2023-01-29T01:44:56.010Z,21.53
2023-01-29T01:47:31.335Z,22.23
2023-01-29T01:50:07.592Z,22.58
2023-01-29T01:52:38.308Z,20.75
2023-01-29T01:55:07.036Z,25.52
2023-01-29T01:57:34.315Z,20.53
2023-01-29T02:00:14.335Z,20.20
2023-01-29T02:03:02.769Z,23.65
2023-01-29T02:05:51.443Z,20.70
2023-01-29T02:09:00.271Z,22.55
2023-01-29T02:11:27.347Z,23.30
2023-01-29T02:13:54.230Z,22.83
2023-01-29T02:16:26.269Z,30.20
2023-01-29T02:18:53.577Z,23.30
2023-01-29T02:21:25.153Z,25.33
2023-01-29T02:24:09.068Z,24.40
2023-01-29T02:27:21.883Z,23.98
2023-01-29T02:30:09.015Z,20.75
2023-01-29T02:33:02.383Z,26.40
2023-01-29T02:35:37.470Z,28.20
2023-01-29T02:38:30.464Z,23.70
2023-01-29T02:41:16.365Z,25.25
2023-01-29T02:43:47.854Z,27.88
2023-01-29T02:46:31.061Z,25.73
2023-01-29T02:49:22.783Z,27.25
2023-01-29T02:52:01.603Z,24.97
2023-01-29T02:54:34.617Z,25.52
2023-01-29T02:57:10.023Z,27.13
2023-01-29T02:59:55.741Z,23.58
2023-01-29T03:02:33.878Z,26.65
2023-01-29T03:05:04.127Z,24.17
2023-01-29T03:07:45.010Z,26.85
2023-01-29T03:10:28.088Z,26.00
2023-01-29T03:13:05.655Z,24.85
2023-01-29T03:15:42.369Z,25.48
2023-01-29T03:18:48.358Z,27.13
2023-01-29T03:21:39.905Z,24.38
2023-01-29T03:24:29.626Z,27.67
2023-01-29T03:27:19.760Z,25.40
2023-01-29T03:30:07.904Z,26.75
2023-01-29T03:32:57.769Z,25.10
2023-01-29T03:35:36.943Z,28.75
2023-01-29T03:38:07.453Z,26.02
2023-01-29T03:40:46.060Z,26.02
2023-01-29T03:43:33.043Z,26.25
2023-01-29T03:46:10.736Z,25.53
2023-01-29T03:48:44.289Z,25.77
2023-01-29T03:51:30.050Z,28.73
2023-01-29T03:54:16.276Z,25.55
2023-01-29T03:56:57.333Z,24.88
2023-01-29T03:59:43.072Z,25.20
2023-01-29T04:02:31.781Z,26.63
2023-01-29T04:05:16.366Z,25.48
2023-01-29T04:08:05.152Z,26.45
2023-01-29T04:10:36.208Z,26.05
2023-01-29T04:13:12.371Z,25.53
2023-01-29T04:15:55.820Z,23.15
2023-01-29T04:18:38.233Z,27.23
2023-01-29T04:21:08.224Z,26.95
2023-01-29T04:23:35.900Z,28.40
2023-01-29T04:26:30.465Z,29.20
2023-01-29T04:29:30.145Z,25.88
2023-01-29T04:32:26.447Z,24.17
2023-01-29T04:35:00.658Z,26.48
2023-01-29T04:38:06.289Z,23.83
2023-01-29T04:40:56.433Z,25.23
2023-01-29T04:43:49.599Z,26.20
2023-01-29T04:46:22.185Z,25.70
2023-01-29T04:49:05.065Z,26.35
2023-01-29T04:51:38.750Z,26.10
2023-01-29T04:54:43.144Z,22.63
2023-01-29T04:57:21.140Z,27.98
2023-01-29T04:59:57.063Z,24.55
2023-01-29T05:02:26.204Z,26.92
2023-01-29T05:04:55.283Z,27.25
2023-01-29T05:07:24.405Z,23.53
2023-01-29T05:09:51.949Z,24.05
2023-01-29T05:12:19.147Z,27.42
2023-01-29T05:14:47.934Z,27.92
2023-01-29T05:17:20.175Z,25.88
2023-01-29T05:19:47.555Z,28.27
2023-01-29T05:22:17.791Z,25.63
2023-01-29T05:24:44.953Z,26.05
2023-01-29T05:27:44.299Z,23.30
2023-01-29T05:30:11.569Z,25.42
2023-01-29T05:32:39.777Z,27.97
2023-01-29T05:35:07.146Z,27.67
2023-01-29T05:37:34.011Z,27.38
2023-01-29T05:40:00.759Z,25.13
2023-01-29T05:42:27.550Z,24.60
2023-01-29T05:44:54.399Z,24.57
2023-01-29T05:47:21.802Z,25.75
2023-01-29T05:49:48.702Z,24.98
2023-01-29T05:52:15.446Z,23.75
2023-01-29T05:54:42.691Z,24.35
2023-01-29T05:57:09.884Z,28.23
2023-01-29T05:59:36.832Z,25.33
2023-01-29T06:02:03.753Z,23.50
2023-01-29T06:04:30.727Z,23.02
2023-01-29T06:06:57.706Z,24.27
2023-01-29T06:09:24.827Z,23.00
2023-01-29T06:11:51.706Z,23.65
2023-01-29T06:14:18.610Z,23.90
2023-01-29T06:16:45.733Z,25.27
2023-01-29T06:19:12.667Z,25.17
2023-01-29T06:21:39.643Z,24.97
2023-01-29T06:24:06.794Z,24.17
2023-01-29T06:26:33.546Z,27.25
2023-01-29T06:29:00.335Z,24.02
2023-01-29T06:31:42.699Z,22.90
2023-01-29T06:34:09.830Z,25.67
2023-01-29T06:36:36.714Z,20.33
2023-01-29T06:39:04.604Z,24.02
2023-01-29T06:41:31.389Z,26.17
2023-01-29T06:43:58.249Z,21.23
2023-01-29T06:46:25.159Z,22.43
2023-01-29T06:48:52.009Z,22.77
2023-01-29T06:51:18.892Z,22.83
2023-01-29T06:53:46.728Z,20.70
2023-01-29T06:56:14.079Z,22.90
2023-01-29T06:58:41.392Z,21.57
2023-01-29T07:01:11.133Z,24.77
2023-01-29T07:03:41.506Z,21.88
2023-01-29T07:06:08.713Z,20.77
2023-01-29T07:08:39.419Z,23.25
2023-01-29T07:11:07.207Z,20.87
2023-01-29T07:13:34.278Z,21.35
2023-01-29T07:16:02.323Z,24.77
2023-01-29T07:18:30.007Z,23.55
2023-01-29T07:20:57.614Z,23.35
2023-01-29T07:23:25.262Z,23.97
2023-01-29T07:25:52.212Z,21.55
2023-01-29T07:28:20.642Z,23.80
2023-01-29T07:30:47.949Z,24.58
2023-01-29T07:33:14.815Z,21.85
2023-01-29T07:35:43.310Z,21.70
2023-01-29T07:38:11.232Z,20.85
2023-01-29T07:40:38.305Z,17.58
2023-01-29T07:43:07.330Z,21.33
2023-01-29T07:45:36.796Z,22.85
2023-01-29T07:48:05.162Z,24.93
2023-01-29T07:50:33.641Z,23.15
2023-01-29T07:53:01.076Z,22.30
2023-01-29T07:55:28.130Z,23.45
2023-01-29T07:58:00.219Z,23.85
2023-01-29T08:00:29.415Z,26.83
2023-01-29T08:03:03.754Z,23.77
2023-01-29T08:05:30.745Z,41.20
2023-01-29T08:08:06.590Z,37.03
2023-01-29T08:10:38.216Z,21.02
2023-01-29T08:13:06.525Z,22.77
2023-01-29T08:15:35.554Z,21.95
2023-01-29T08:18:03.955Z,21.95
2023-01-29T08:20:30.857Z,23.60
2023-01-29T08:23:07.157Z,23.80
2023-01-29T08:25:35.420Z,21.23
2023-01-29T08:28:02.493Z,21.35
2023-01-29T08:30:31.786Z,24.38
2023-01-29T08:32:59.183Z,22.52
2023-01-29T08:35:26.641Z,23.30
2023-01-29T08:38:01.839Z,23.00
2023-01-29T08:40:31.606Z,23.60
2023-01-29T08:43:02.062Z,20.75
2023-01-29T08:45:30.250Z,20.33
2023-01-29T08:47:57.717Z,18.23
2023-01-29T08:50:24.720Z,21.73
2023-01-29T08:52:51.702Z,22.35
2023-01-29T08:55:19.003Z,20.75
2023-01-29T08:57:46.019Z,21.23
2023-01-29T09:00:13.579Z,18.73
2023-01-29T09:02:40.635Z,20.47
2023-01-29T09:05:08.415Z,17.23
2023-01-29T09:07:35.528Z,23.02
2023-01-29T09:10:02.713Z,21.67
2023-01-29T09:12:30.109Z,21.92
2023-01-29T09:14:57.480Z,23.77
2023-01-29T09:17:24.519Z,18.10
2023-01-29T09:19:53.306Z,21.13
2023-01-29T09:22:20.879Z,23.50
2023-01-29T09:24:47.654Z,20.10
2023-01-29T09:27:14.570Z,18.27
2023-01-29T09:29:41.390Z,20.60
2023-01-29T09:32:08.287Z,15.48
2023-01-29T09:34:35.356Z,22.98
2023-01-29T09:37:02.283Z,25.38
2023-01-29T09:39:29.763Z,24.80
2023-01-29T09:42:01.629Z,23.25
2023-01-29T09:44:54.526Z,25.70
2023-01-29T09:47:25.598Z,22.90
2023-01-29T09:49:59.080Z,22.77
2023-01-29T09:52:30.004Z,22.77
2023-01-29T09:55:09.740Z,22.23
2023-01-29T09:58:00.861Z,24.20
2023-01-29T10:00:48.511Z,19.70
2023-01-29T10:03:43.737Z,27.58
2023-01-29T10:06:41.368Z,22.07
2023-01-29T10:09:14.453Z,19.48
2023-01-29T10:11:59.500Z,20.98
2023-01-29T10:14:42.436Z,18.98
2023-01-29T10:17:48.949Z,23.25
2023-01-29T10:20:50.168Z,22.73
2023-01-29T10:23:34.182Z,21.60
2023-01-29T10:26:02.010Z,27.80
2023-01-29T10:28:36.687Z,24.90
2023-01-29T10:31:19.087Z,23.60
2023-01-29T10:34:01.524Z,24.47
2023-01-29T10:36:48.997Z,22.35
2023-01-29T10:39:21.148Z,25.50
2023-01-29T10:42:15.603Z,24.33
2023-01-29T10:45:15.148Z,25.73
2023-01-29T10:48:00.701Z,24.03
2023-01-29T10:50:45.593Z,24.73
2023-01-29T10:53:53.967Z,24.90
2023-01-29T10:56:27.008Z,25.15
2023-01-29T10:59:05.467Z,27.67
2023-01-29T11:01:32.358Z,27.43
2023-01-29T11:04:14.110Z,30.00
2023-01-29T11:06:41.361Z,28.38
2023-01-29T11:09:26.304Z,27.27
2023-01-29T11:11:56.285Z,29.77
2023-01-29T11:14:41.469Z,25.77
2023-01-29T11:17:19.362Z,30.10
2023-01-29T11:19:48.477Z,25.55
2023-01-29T11:22:20.971Z,26.00
2023-01-29T11:25:17.646Z,30.55
2023-01-29T11:27:51.374Z,28.03
2023-01-29T11:30:31.557Z,24.92
2023-01-29T11:33:19.250Z,27.42
2023-01-29T11:35:46.539Z,32.65
2023-01-29T11:38:16.289Z,26.85
2023-01-29T11:40:44.636Z,30.07
2023-01-29T11:43:21.229Z,27.83
2023-01-29T11:45:58.003Z,25.70
2023-01-29T11:48:41.014Z,28.58
2023-01-29T11:51:10.988Z,30.10
2023-01-29T11:53:44.007Z,25.40
2023-01-29T11:56:32.680Z,31.17
2023-01-29T11:59:04.345Z,32.97
2023-01-29T12:01:38.114Z,28.45
2023-01-29T12:04:21.622Z,26.58
2023-01-29T12:06:52.681Z,30.93
2023-01-29T12:09:28.895Z,27.88
2023-01-29T12:11:56.047Z,31.58
2023-01-29T12:14:33.634Z,29.35
2023-01-29T12:17:08.378Z,26.25
2023-01-29T12:19:42.989Z,27.97
2023-01-29T12:22:25.554Z,29.35
2023-01-29T12:25:18.292Z,28.33
2023-01-29T12:28:09.671Z,28.13
2023-01-29T12:30:54.750Z,27.52
2023-01-29T12:33:51.203Z,32.50
2023-01-29T12:36:21.969Z,29.38
2023-01-29T12:38:48.866Z,32.03
2023-01-29T12:41:30.008Z,31.25
2023-01-29T12:44:06.145Z,29.35
2023-01-29T12:46:46.342Z,29.57
2023-01-29T12:49:22.468Z,30.88
2023-01-29T12:51:56.718Z,28.60
2023-01-29T12:54:32.999Z,29.63
2023-01-29T12:57:03.568Z,28.35
2023-01-29T12:59:43.149Z,25.60
2023-01-29T13:02:22.855Z,30.35
2023-01-29T13:05:03.674Z,30.33
2023-01-29T13:07:41.024Z,28.02
2023-01-29T13:10:13.640Z,27.85
2023-01-29T13:12:46.639Z,28.00
2023-01-29T13:15:24.184Z,24.27
2023-01-29T13:18:02.681Z,26.17
2023-01-29T13:20:34.022Z,26.60
2023-01-29T13:23:20.923Z,25.75
2023-01-29T13:25:51.874Z,23.13
2023-01-29T13:28:22.506Z,27.30
2023-01-29T13:31:14.630Z,24.50
2023-01-29T13:33:43.292Z,21.80
2023-01-29T13:36:21.080Z,27.27
2023-01-29T13:39:14.078Z,24.40
2023-01-29T13:41:43.071Z,20.55
2023-01-29T13:44:29.012Z,24.95
2023-01-29T13:46:58.992Z,25.83
2023-01-29T13:49:34.072Z,25.65
2023-01-29T13:52:15.300Z,23.87
2023-01-29T13:54:57.310Z,24.25
2023-01-29T13:57:39.607Z,26.23
2023-01-29T14:00:31.046Z,24.50
2023-01-29T14:03:01.626Z,20.70
2023-01-29T14:05:31.781Z,23.07
2023-01-29T14:08:14.216Z,26.15
2023-01-29T14:10:42.861Z,26.88
2023-01-29T14:13:18.993Z,27.23
2023-01-29T14:16:06.959Z,26.52
2023-01-29T14:18:35.998Z,23.83
2023-01-29T14:21:11.710Z,25.48
2023-01-29T14:23:41.844Z,23.15
2023-01-29T14:26:26.459Z,26.25
2023-01-29T14:28:59.021Z,22.92
2023-01-29T14:31:57.765Z,25.73
2023-01-29T14:34:35.068Z,25.98
2023-01-29T14:37:28.895Z,30.45
2023-01-29T14:40:00.413Z,28.77
2023-01-29T14:42:33.685Z,22.83
2023-01-29T14:45:22.562Z,22.23
2023-01-29T14:47:49.660Z,24.70
2023-01-29T14:50:22.001Z,24.17
2023-01-29T14:52:52.648Z,27.13
2023-01-29T14:55:35.719Z,26.40
2023-01-29T14:58:03.708Z,28.43
2023-01-29T15:00:35.855Z,26.20
2023-01-29T15:03:11.892Z,28.35
2023-01-29T15:05:40.349Z,23.40
2023-01-29T15:08:29.988Z,26.38
2023-01-29T15:11:19.850Z,21.03
2023-01-29T15:13:57.339Z,24.33
2023-01-29T15:16:51.647Z,21.60
2023-01-29T15:19:48.007Z,26.73
2023-01-29T15:22:16.510Z,24.83
2023-01-29T15:24:45.546Z,25.33
2023-01-29T15:27:20.558Z,17.88
2023-01-29T15:30:04.622Z,24.00
2023-01-29T15:32:36.044Z,22.85
2023-01-29T15:35:22.961Z,21.90
2023-01-29T15:38:18.971Z,24.43
2023-01-29T15:41:02.461Z,22.45
2023-01-29T15:43:42.895Z,21.48
2023-01-29T15:46:22.933Z,18.95
2023-01-29T15:48:51.025Z,22.60
2023-01-29T15:51:20.597Z,21.47
2023-01-29T15:53:58.350Z,27.30
2023-01-29T15:56:33.260Z,23.85
2023-01-29T15:59:09.720Z,23.67
2023-01-29T16:01:36.950Z,23.58
2023-01-29T16:04:04.625Z,24.30
2023-01-29T16:06:37.849Z,24.98
2023-01-29T16:09:06.125Z,26.88
2023-01-29T16:11:34.620Z,25.83
2023-01-29T16:14:02.888Z,25.27
2023-01-29T16:16:30.150Z,22.57
2023-01-29T16:19:00.706Z,23.45
2023-01-29T16:21:35.268Z,19.15
2023-01-29T16:24:15.843Z,28.33
2023-01-29T16:26:47.673Z,23.45
2023-01-29T16:29:22.508Z,21.10
2023-01-29T16:31:52.756Z,24.33
2023-01-29T16:34:27.896Z,23.30
2023-01-29T16:36:56.122Z,26.60
2023-01-29T16:39:32.699Z,22.27
2023-01-29T16:42:19.990Z,20.90
2023-01-29T16:45:05.049Z,32.80
2023-01-29T16:47:36.369Z,31.77
2023-01-29T16:50:18.633Z,28.42
2023-01-29T16:52:58.184Z,27.45
2023-01-29T16:55:26.084Z,27.00
2023-01-29T16:57:55.106Z,25.98
2023-01-29T17:00:29.915Z,23.05
2023-01-29T17:03:04.467Z,29.95
2023-01-29T17:05:34.883Z,28.10
2023-01-29T17:08:03.121Z,31.83
2023-01-29T17:10:30.893Z,32.22
2023-01-29T17:13:10.158Z,28.23
2023-01-29T17:15:43.058Z,33.25
2023-01-29T17:18:17.759Z,29.75
2023-01-29T17:20:44.755Z,29.20
2023-01-29T17:23:11.647Z,29.05
2023-01-29T17:25:39.000Z,25.65
2023-01-29T17:28:06.201Z,33.63
2023-01-29T17:30:37.007Z,34.25
2023-01-29T17:33:15.058Z,32.07
2023-01-29T17:35:43.877Z,35.25
2023-01-29T17:38:25.578Z,29.50
2023-01-29T17:41:05.230Z,33.17
2023-01-29T17:43:32.163Z,31.45
2023-01-29T17:45:59.083Z,32.23
2023-01-29T17:48:28.629Z,29.45
2023-01-29T17:50:58.575Z,33.28
2023-01-29T17:53:30.544Z,27.38
2023-01-29T17:56:03.728Z,33.40
2023-01-29T17:58:30.528Z,31.43
2023-01-29T18:00:57.367Z,29.05
2023-01-29T18:03:24.193Z,29.20
2023-01-29T18:05:51.195Z,29.73
2023-01-29T18:08:19.205Z,29.30
2023-01-29T18:10:46.753Z,34.07
2023-01-29T18:13:14.160Z,32.78
2023-01-29T18:15:41.412Z,31.35
2023-01-29T18:18:14.196Z,30.35
2023-01-29T18:20:41.372Z,32.53
2023-01-29T18:23:08.780Z,31.77
2023-01-29T18:25:35.881Z,30.63
2023-01-29T18:28:03.916Z,28.88
2023-01-29T18:30:31.438Z,25.50
2023-01-29T18:32:58.504Z,31.92
2023-01-29T18:35:27.314Z,32.43
2023-01-29T18:37:55.048Z,23.27
2023-01-29T18:40:21.947Z,22.92
2023-01-29T18:42:49.282Z,28.85
2023-01-29T18:45:17.167Z,26.23
2023-01-29T18:47:44.461Z,23.40
2023-01-29T18:50:11.971Z,25.20
2023-01-29T18:52:41.015Z,27.75
2023-01-29T18:55:09.852Z,34.00
2023-01-29T18:58:27.304Z,28.80
2023-01-29T19:00:26.323Z,29.53
2023-01-29T19:02:53.556Z,27.50
2023-01-29T19:05:23.031Z,27.77
2023-01-29T19:07:50.346Z,29.20
2023-01-29T19:10:17.358Z,24.52
2023-01-29T19:12:47.034Z,19.97
2023-01-29T19:15:14.095Z,24.30
2023-01-29T19:17:41.125Z,33.92
2023-01-29T19:20:12.399Z,31.40
2023-01-29T19:22:40.984Z,31.15
2023-01-29T19:25:09.334Z,27.03
2023-01-29T19:27:39.843Z,30.30
2023-01-29T19:30:08.930Z,28.38
2023-01-29T19:32:36.963Z,27.58
2023-01-29T19:35:08.507Z,29.58
2023-01-29T19:37:36.715Z,35.87
2023-01-29T19:40:09.058Z,33.38
2023-01-29T19:42:41.159Z,28.33
2023-01-29T19:45:10.749Z,30.02
2023-01-29T19:47:43.332Z,32.50
2023-01-29T19:50:12.095Z,36.20
2023-01-29T19:52:55.085Z,31.00
2023-01-29T19:55:25.608Z,28.42
2023-01-29T19:57:58.624Z,33.53
2023-01-29T20:00:26.021Z,30.92
2023-01-29T20:02:53.358Z,28.27
2023-01-29T20:05:20.496Z,26.42
2023-01-29T20:07:49.998Z,32.95
2023-01-29T20:10:18.063Z,32.28
2023-01-29T20:12:45.697Z,32.88
2023-01-29T20:15:13.863Z,28.50
2023-01-29T20:17:40.782Z,27.75
2023-01-29T20:20:08.794Z,29.00
2023-01-29T20:22:35.813Z,27.95
2023-01-29T20:25:03.014Z,33.97
2023-01-29T20:27:29.947Z,26.07
2023-01-29T20:29:57.429Z,34.63
2023-01-29T20:32:24.643Z,33.95
2023-01-29T20:34:52.491Z,31.90
2023-01-29T20:37:20.242Z,34.28
2023-01-29T20:39:47.193Z,29.23
2023-01-29T20:42:14.181Z,33.95
2023-01-29T20:44:41.823Z,37.13
2023-01-29T20:47:08.767Z,37.08
2023-01-29T20:49:35.940Z,29.52
2023-01-29T20:52:03.592Z,34.90
2023-01-29T20:54:33.327Z,31.85
2023-01-29T20:57:00.805Z,36.47
2023-01-29T20:59:29.251Z,28.95
2023-01-29T21:01:56.448Z,29.33
2023-01-29T21:04:23.678Z,26.63
2023-01-29T21:06:50.740Z,31.92
2023-01-29T21:09:17.939Z,30.80
2023-01-29T21:11:45.127Z,33.55
2023-01-29T21:14:12.527Z,28.77
2023-01-29T21:16:40.371Z,31.33
2023-01-29T21:19:07.531Z,36.85
2023-01-29T21:21:34.882Z,32.45
2023-01-29T21:24:01.779Z,34.33
2023-01-29T21:26:28.770Z,27.63
2023-01-29T21:28:55.823Z,26.13
2023-01-29T21:31:22.917Z,34.05
2023-01-29T21:33:50.184Z,30.27
2023-01-29T21:36:17.518Z,32.75
2023-01-29T21:38:44.711Z,36.58
2023-01-29T21:41:11.815Z,29.30
2023-01-29T21:43:39.093Z,33.63
2023-01-29T21:46:14.040Z,31.83
2023-01-29T21:48:41.374Z,42.33
2023-01-29T21:51:08.503Z,27.40
2023-01-29T21:53:36.697Z,34.13
2023-01-29T21:56:05.887Z,35.25
2023-01-29T21:58:32.842Z,33.55
2023-01-29T22:01:17.986Z,32.55
2023-01-29T22:03:47.573Z,33.70
2023-01-29T22:06:15.206Z,36.20
2023-01-29T22:08:42.244Z,31.08
2023-01-29T22:11:12.448Z,35.28
2023-01-29T22:13:39.358Z,32.50
2023-01-29T22:16:06.815Z,34.97
2023-01-29T22:18:34.290Z,31.33
2023-01-29T22:21:04.458Z,34.22
2023-01-29T22:23:32.323Z,38.85
2023-01-29T22:26:06.224Z,31.45
2023-01-29T22:28:33.169Z,35.33
2023-01-29T22:31:04.048Z,36.13
2023-01-29T22:33:31.524Z,32.70
2023-01-29T22:35:58.421Z,31.88
2023-01-29T22:38:25.817Z,31.10
2023-01-29T22:40:53.895Z,31.77
2023-01-29T22:43:21.426Z,31.30
2023-01-29T22:45:49.410Z,33.35
2023-01-29T22:48:16.152Z,27.35
2023-01-29T22:50:43.101Z,35.08
2023-01-29T22:53:10.096Z,33.67
2023-01-29T22:55:36.891Z,26.00
2023-01-29T22:58:03.710Z,30.98
2023-01-29T23:00:30.602Z,31.13
2023-01-29T23:02:57.653Z,26.02
2023-01-29T23:05:24.444Z,29.20
2023-01-29T23:07:51.288Z,26.87
2023-01-29T23:10:18.399Z,32.80
2023-01-29T23:12:45.494Z,30.15
2023-01-29T23:15:12.354Z,28.83
2023-01-29T23:17:39.822Z,29.92
2023-01-29T23:20:29.346Z,25.60
2023-01-29T23:22:56.604Z,32.58
2023-01-29T23:25:43.600Z,29.80
2023-01-29T23:28:10.411Z,35.60
2023-01-29T23:30:37.405Z,27.65
2023-01-29T23:33:04.886Z,23.47
2023-01-29T23:35:31.736Z,27.17
2023-01-29T23:37:58.747Z,29.75
2023-01-29T23:40:25.583Z,27.52
2023-01-29T23:42:52.396Z,26.48
2023-01-29T23:45:19.254Z,24.93
2023-01-29T23:47:46.055Z,29.52
2023-01-29T23:50:13.228Z,27.27
2023-01-29T23:52:40.082Z,29.95
2023-01-29T23:55:08.267Z,28.63
2023-01-29T23:57:35.332Z,33.07
